createdAt,value
2022-12-11T00:00:25.427Z,100.00
2022-12-11T00:03:15.938Z,100.00
2022-12-11T00:05:45.337Z,100.00
2022-12-11T00:08:13.404Z,100.00
2022-12-11T00:10:47.295Z,100.00
2022-12-11T00:13:14.231Z,100.00
2022-12-11T00:15:40.881Z,100.00
2022-12-11T00:18:12.119Z,100.00
2022-12-11T00:20:38.780Z,100.00
2022-12-11T00:23:05.495Z,100.00
2022-12-11T00:25:32.163Z,99.94
2022-12-11T00:27:58.839Z,100.00
2022-12-11T00:30:25.473Z,100.00
2022-12-11T00:32:52.114Z,100.00
2022-12-11T00:35:18.923Z,100.00
2022-12-11T00:37:45.616Z,100.00
2022-12-11T00:40:12.234Z,100.00
2022-12-11T00:42:38.942Z,100.00
2022-12-11T00:45:06.023Z,99.99
2022-12-11T00:47:32.642Z,99.99
2022-12-11T00:49:59.343Z,99.95
2022-12-11T00:52:26.826Z,100.00
2022-12-11T00:54:53.462Z,99.99
2022-12-11T00:57:20.105Z,100.00
2022-12-11T00:59:47.052Z,100.00
2022-12-11T01:02:13.782Z,99.99
2022-12-11T01:04:40.546Z,99.98
2022-12-11T01:07:07.429Z,99.96
2022-12-11T01:09:53.835Z,100.00
2022-12-11T01:12:20.510Z,100.00
2022-12-11T01:14:47.337Z,100.00
2022-12-11T01:17:14.087Z,99.99
2022-12-11T01:19:40.697Z,100.00
2022-12-11T01:22:07.395Z,100.00
2022-12-11T01:24:34.269Z,100.00
2022-12-11T01:27:00.921Z,99.98
2022-12-11T01:29:27.627Z,100.00
2022-12-11T01:31:54.366Z,99.96
2022-12-11T01:34:21.330Z,99.99
2022-12-11T01:36:48.027Z,100.00
2022-12-11T01:39:14.735Z,99.87
2022-12-11T01:41:41.416Z,100.00
2022-12-11T01:44:28.077Z,99.96
2022-12-11T01:46:54.761Z,100.00
2022-12-11T01:49:25.633Z,99.94
2022-12-11T01:52:03.366Z,100.00
2022-12-11T01:54:30.721Z,99.92
2022-12-11T01:57:03.238Z,99.92
2022-12-11T01:59:33.681Z,99.94
2022-12-11T02:02:11.992Z,99.99
2022-12-11T02:04:41.385Z,99.94
2022-12-11T02:07:09.730Z,100.00
2022-12-11T02:09:39.563Z,99.95
2022-12-11T02:12:26.479Z,99.96
2022-12-11T02:15:20.671Z,100.00
2022-12-11T02:17:55.109Z,99.90
2022-12-11T02:20:32.661Z,99.96
2022-12-11T02:23:08.232Z,99.95
2022-12-11T02:25:53.711Z,99.91
2022-12-11T02:28:29.292Z,99.93
2022-12-11T02:31:06.819Z,100.00
2022-12-11T02:33:39.901Z,99.91
2022-12-11T02:36:09.271Z,99.95
2022-12-11T02:38:41.146Z,99.97
2022-12-11T02:41:11.371Z,99.91
2022-12-11T02:43:40.076Z,99.91
2022-12-11T02:46:08.304Z,99.91
2022-12-11T02:48:36.667Z,99.85
2022-12-11T02:51:06.243Z,99.89
2022-12-11T02:53:37.015Z,99.81
2022-12-11T02:56:28.911Z,99.86
2022-12-11T02:59:00.658Z,99.94
2022-12-11T03:01:27.968Z,99.93
2022-12-11T03:03:56.243Z,99.82
2022-12-11T03:06:28.824Z,99.88
2022-12-11T03:08:55.759Z,99.88
2022-12-11T03:11:22.522Z,99.91
2022-12-11T03:13:49.443Z,99.88
2022-12-11T03:16:35.475Z,99.81
2022-12-11T03:19:23.943Z,99.83
2022-12-11T03:22:09.247Z,99.91
2022-12-11T03:24:58.901Z,99.78
2022-12-11T03:27:27.807Z,99.91
2022-12-11T03:29:59.760Z,99.95
2022-12-11T03:32:30.838Z,99.82
2022-12-11T03:35:08.166Z,99.88
2022-12-11T03:37:39.397Z,99.83
2022-12-11T03:40:15.453Z,99.82
2022-12-11T03:42:44.762Z,99.92
2022-12-11T03:45:13.816Z,99.84
2022-12-11T03:47:41.668Z,99.92
2022-12-11T03:50:12.021Z,99.72
2022-12-11T03:52:46.002Z,99.83
2022-12-11T03:55:15.944Z,99.74
2022-12-11T03:57:44.162Z,99.79
2022-12-11T04:00:14.772Z,99.75
2022-12-11T04:02:42.475Z,99.89
2022-12-11T04:05:11.167Z,99.80
2022-12-11T04:07:38.215Z,99.81
2022-12-11T04:10:05.578Z,99.69
2022-12-11T04:12:32.288Z,99.74
2022-12-11T04:15:01.994Z,99.57
2022-12-11T04:17:53.611Z,99.65
2022-12-11T04:20:39.495Z,99.67
2022-12-11T04:23:29.882Z,99.76
2022-12-11T04:26:05.711Z,99.78
2022-12-11T04:28:32.469Z,99.63
2022-12-11T04:30:59.279Z,99.57
2022-12-11T04:33:26.604Z,99.64
2022-12-11T04:35:53.547Z,99.77
2022-12-11T04:38:20.345Z,99.60
2022-12-11T04:40:46.999Z,99.75
2022-12-11T04:43:13.846Z,99.65
2022-12-11T04:45:41.217Z,99.61
2022-12-11T04:48:11.125Z,99.73
2022-12-11T04:50:38.303Z,99.73
2022-12-11T04:53:04.947Z,99.54
2022-12-11T04:55:31.645Z,99.77
2022-12-11T04:57:58.313Z,99.47
2022-12-11T05:00:25.008Z,99.67
2022-12-11T05:02:51.796Z,99.50
2022-12-11T05:05:18.630Z,99.42
2022-12-11T05:07:45.375Z,99.56
2022-12-11T05:10:12.148Z,99.27
2022-12-11T05:12:38.935Z,99.28
2022-12-11T05:15:06.054Z,99.48
2022-12-11T05:17:33.193Z,99.43
2022-12-11T05:19:59.877Z,99.34
2022-12-11T05:22:26.527Z,99.39
2022-12-11T05:24:53.220Z,99.39
2022-12-11T05:27:20.398Z,99.32
2022-12-11T05:29:47.108Z,99.36
2022-12-11T05:32:13.759Z,99.38
2022-12-11T05:34:40.595Z,99.27
2022-12-11T05:37:07.630Z,99.14
2022-12-11T05:39:34.601Z,99.27
2022-12-11T05:42:01.250Z,99.27
2022-12-11T05:44:27.982Z,99.36
2022-12-11T05:46:54.726Z,99.12
2022-12-11T05:49:25.925Z,99.11
2022-12-11T05:51:55.838Z,99.13
2022-12-11T05:54:22.621Z,99.16
2022-12-11T05:56:50.928Z,99.28
2022-12-11T05:59:19.150Z,99.40
2022-12-11T06:01:46.258Z,99.05
2022-12-11T06:04:13.870Z,99.40
2022-12-11T06:06:43.441Z,98.82
2022-12-11T06:09:14.104Z,99.23
2022-12-11T06:11:41.991Z,99.18
2022-12-11T06:14:10.385Z,99.24
2022-12-11T06:16:37.359Z,99.02
2022-12-11T06:19:04.100Z,98.91
2022-12-11T06:21:32.721Z,98.99
2022-12-11T06:24:02.482Z,99.21
2022-12-11T06:26:29.844Z,99.12
2022-12-11T06:28:56.664Z,99.28
2022-12-11T06:31:23.401Z,99.14
2022-12-11T06:33:50.385Z,99.23
2022-12-11T06:36:20.915Z,99.13
2022-12-11T06:38:47.768Z,99.03
2022-12-11T06:41:15.402Z,99.17
2022-12-11T06:43:42.555Z,98.93
2022-12-11T06:46:14.720Z,98.94
2022-12-11T06:48:41.951Z,99.12
2022-12-11T06:51:14.588Z,99.15
2022-12-11T06:53:41.717Z,99.06
2022-12-11T06:56:12.106Z,99.19
2022-12-11T06:58:39.580Z,98.90
2022-12-11T07:01:18.415Z,98.95
2022-12-11T07:03:46.162Z,99.07
2022-12-11T07:06:13.739Z,99.09
2022-12-11T07:08:43.516Z,98.70
2022-12-11T07:11:15.181Z,98.94
2022-12-11T07:13:42.500Z,98.79
2022-12-11T07:16:11.308Z,98.98
2022-12-11T07:18:39.650Z,98.83
2022-12-11T07:21:07.736Z,98.81
2022-12-11T07:23:35.323Z,98.84
2022-12-11T07:26:07.755Z,98.51
2022-12-11T07:28:35.505Z,98.77
2022-12-11T07:31:07.197Z,98.96
2022-12-11T07:33:34.091Z,98.98
2022-12-11T07:36:02.792Z,98.57
2022-12-11T07:38:29.781Z,98.87
2022-12-11T07:41:00.412Z,98.69
2022-12-11T07:43:27.133Z,98.81
2022-12-11T07:45:53.806Z,98.48
2022-12-11T07:48:20.713Z,98.61
2022-12-11T07:50:47.489Z,98.39
2022-12-11T07:53:14.414Z,98.65
2022-12-11T07:55:41.203Z,98.58
2022-12-11T07:58:07.939Z,98.56
2022-12-11T08:00:34.590Z,98.50
2022-12-11T08:03:01.334Z,98.09
2022-12-11T08:05:28.460Z,98.34
2022-12-11T08:07:55.481Z,98.31
2022-12-11T08:10:22.375Z,98.45
2022-12-11T08:12:49.515Z,98.35
2022-12-11T08:15:16.293Z,98.27
2022-12-11T08:17:42.954Z,98.38
2022-12-11T08:20:10.553Z,98.22
2022-12-11T08:22:37.346Z,98.31
2022-12-11T08:25:04.581Z,98.30
2022-12-11T08:27:31.240Z,98.32
2022-12-11T08:29:57.899Z,98.26
2022-12-11T08:32:25.013Z,98.15
2022-12-11T08:34:52.053Z,97.86
2022-12-11T08:37:18.852Z,97.87
2022-12-11T08:39:52.239Z,97.86
2022-12-11T08:42:22.366Z,97.97
2022-12-11T08:44:49.705Z,97.96
2022-12-11T08:47:16.550Z,98.05
2022-12-11T08:49:44.036Z,97.79
2022-12-11T08:52:11.814Z,97.79
2022-12-11T08:54:38.672Z,97.96
2022-12-11T08:57:05.479Z,97.49
2022-12-11T08:59:32.271Z,97.65
2022-12-11T09:01:58.924Z,97.81
2022-12-11T09:04:25.587Z,97.83
2022-12-11T09:06:55.265Z,97.76
2022-12-11T09:09:25.119Z,97.48
2022-12-11T09:11:52.016Z,97.81
2022-12-11T09:14:18.833Z,97.63
2022-12-11T09:16:45.621Z,97.50
2022-12-11T09:19:14.424Z,97.34
2022-12-11T09:21:42.646Z,97.22
2022-12-11T09:24:11.698Z,97.43
2022-12-11T09:26:39.299Z,97.32
2022-12-11T09:29:07.004Z,97.45
2022-12-11T09:31:35.923Z,97.26
2022-12-11T09:34:08.926Z,97.14
2022-12-11T09:36:38.644Z,97.37
2022-12-11T09:39:07.665Z,97.40
2022-12-11T09:41:55.024Z,97.46
2022-12-11T09:44:42.897Z,97.98
2022-12-11T09:47:19.512Z,97.74
2022-12-11T09:49:49.116Z,97.57
2022-12-11T09:52:37.403Z,97.33
2022-12-11T09:55:16.911Z,97.20
2022-12-11T09:57:58.761Z,97.23
2022-12-11T10:00:48.832Z,97.21
2022-12-11T10:03:27.677Z,97.26
2022-12-11T10:06:06.264Z,97.21
2022-12-11T10:08:44.343Z,97.32
2022-12-11T10:11:56.123Z,96.84
2022-12-11T10:15:01.070Z,96.51
2022-12-11T10:17:31.824Z,96.96
2022-12-11T10:20:14.975Z,96.54
2022-12-11T10:22:42.245Z,96.32
2022-12-11T10:25:19.777Z,96.14
2022-12-11T10:27:46.847Z,95.69
2022-12-11T10:30:38.927Z,95.85
2022-12-11T10:33:22.165Z,95.93
2022-12-11T10:35:53.092Z,96.12
2022-12-11T10:38:31.953Z,96.21
2022-12-11T10:41:21.187Z,96.33
2022-12-11T10:43:50.091Z,96.29
2022-12-11T10:46:28.032Z,96.34
2022-12-11T10:49:00.138Z,96.01
2022-12-11T10:51:29.655Z,95.69
2022-12-11T10:54:07.193Z,95.70
2022-12-11T10:56:36.506Z,95.43
2022-12-11T10:59:03.888Z,95.84
2022-12-11T11:01:34.706Z,95.68
2022-12-11T11:04:18.768Z,95.26
2022-12-11T11:06:45.503Z,95.40
2022-12-11T11:09:35.006Z,95.80
2022-12-11T11:12:07.710Z,95.13
2022-12-11T11:14:34.872Z,95.05
2022-12-11T11:17:01.693Z,95.10
2022-12-11T11:19:34.592Z,95.15
2022-12-11T11:22:04.081Z,95.15
2022-12-11T11:24:41.903Z,94.96
2022-12-11T11:27:23.967Z,95.03
2022-12-11T11:29:57.679Z,95.35
2022-12-11T11:32:33.282Z,95.30
2022-12-11T11:35:30.268Z,95.10
2022-12-11T11:38:03.298Z,94.99
2022-12-11T11:40:40.997Z,95.03
2022-12-11T11:43:36.510Z,95.13
2022-12-11T11:46:31.006Z,95.01
2022-12-11T11:49:12.752Z,94.85
2022-12-11T11:51:45.142Z,95.03
2022-12-11T11:54:30.941Z,95.02
2022-12-11T11:57:00.976Z,94.95
2022-12-11T11:59:39.135Z,94.84
2022-12-11T12:02:17.819Z,94.55
2022-12-11T12:04:46.170Z,94.35
2022-12-11T12:07:50.950Z,94.69
2022-12-11T12:10:40.110Z,94.15
2022-12-11T12:13:49.533Z,94.49
2022-12-11T12:19:21.452Z,94.29
2022-12-11T12:21:52.367Z,94.78
2022-12-11T12:24:47.513Z,94.66
2022-12-11T12:27:51.171Z,94.32
2022-12-11T12:30:20.365Z,94.76
2022-12-11T12:33:14.076Z,94.56
2022-12-11T12:36:06.578Z,94.52
2022-12-11T12:38:54.807Z,94.60
2022-12-11T12:41:38.941Z,94.59
2022-12-11T12:44:14.267Z,94.77
2022-12-11T12:46:50.334Z,94.76
2022-12-11T12:49:34.925Z,94.81
2022-12-11T12:52:04.530Z,94.51
2022-12-11T12:54:33.540Z,94.44
2022-12-11T12:57:03.663Z,94.53
2022-12-11T12:59:30.571Z,94.76
2022-12-11T13:02:00.623Z,94.78
2022-12-11T13:04:57.866Z,94.93
2022-12-11T13:07:29.563Z,95.75
2022-12-11T13:10:00.627Z,94.65
2022-12-11T13:12:41.844Z,94.46
2022-12-11T13:15:46.357Z,94.19
2022-12-11T13:18:35.694Z,94.35
2022-12-11T13:21:28.636Z,94.50
2022-12-11T13:24:23.429Z,94.55
2022-12-11T13:26:51.130Z,94.31
2022-12-11T13:29:36.270Z,94.72
2022-12-11T13:32:08.914Z,94.40
2022-12-11T13:34:38.650Z,94.46
2022-12-11T13:37:06.862Z,94.62
2022-12-11T13:39:36.949Z,94.56
2022-12-11T13:42:38.865Z,94.13
2022-12-11T13:45:07.509Z,94.94
2022-12-11T13:47:35.805Z,94.82
2022-12-11T13:50:30.637Z,94.58
2022-12-11T13:53:01.873Z,94.52
2022-12-11T13:55:32.162Z,94.66
2022-12-11T13:57:59.177Z,94.34
2022-12-11T14:00:32.194Z,94.12
2022-12-11T14:03:04.482Z,94.57
2022-12-11T14:05:31.479Z,94.42
2022-12-11T14:08:08.257Z,94.58
2022-12-11T14:10:35.962Z,94.79
2022-12-11T14:13:07.120Z,94.51
2022-12-11T14:15:35.804Z,94.54
2022-12-11T14:18:04.335Z,94.65
2022-12-11T14:20:34.327Z,94.48
2022-12-11T14:23:08.974Z,94.44
2022-12-11T14:25:35.703Z,94.51
2022-12-11T14:28:03.174Z,94.54
2022-12-11T14:30:32.747Z,94.72
2022-12-11T14:33:04.711Z,94.82
2022-12-11T14:35:41.083Z,94.28
2022-12-11T14:38:15.983Z,94.39
2022-12-11T14:40:46.549Z,94.78
2022-12-11T14:43:31.049Z,94.83
2022-12-11T14:46:02.499Z,94.17
2022-12-11T14:48:43.318Z,94.37
2022-12-11T14:51:14.498Z,94.40
2022-12-11T14:53:45.997Z,94.63
2022-12-11T14:56:29.390Z,94.45
2022-12-11T14:59:03.305Z,95.03
2022-12-11T15:01:35.322Z,94.91
2022-12-11T15:04:06.434Z,94.65
2022-12-11T15:06:43.706Z,94.56
2022-12-11T15:09:49.664Z,94.86
2022-12-11T15:12:19.027Z,94.66
2022-12-11T15:15:00.431Z,94.97
2022-12-11T15:17:30.558Z,94.93
2022-12-11T15:20:10.919Z,94.54
2022-12-11T15:22:42.860Z,94.46
2022-12-11T15:25:22.512Z,94.92
2022-12-11T15:27:52.509Z,94.66
2022-12-11T15:30:26.236Z,94.65
2022-12-11T15:33:09.262Z,95.07
2022-12-11T15:35:39.209Z,94.38
2022-12-11T15:38:06.385Z,94.58
2022-12-11T15:40:33.154Z,94.12
2022-12-11T15:43:01.759Z,94.59
2022-12-11T15:45:28.651Z,94.83
2022-12-11T15:47:56.740Z,94.54
2022-12-11T15:50:28.733Z,94.77
2022-12-11T15:52:56.578Z,94.52
2022-12-11T15:55:27.006Z,94.43
2022-12-11T15:57:58.938Z,94.66
2022-12-11T16:00:27.532Z,94.28
2022-12-11T16:02:56.281Z,94.28
2022-12-11T16:05:25.891Z,94.91
2022-12-11T16:07:54.231Z,94.40
2022-12-11T16:10:21.751Z,94.81
2022-12-11T16:12:48.523Z,94.55
2022-12-11T16:15:21.485Z,94.61
2022-12-11T16:17:59.054Z,94.62
2022-12-11T16:20:25.754Z,94.77
2022-12-11T16:22:52.450Z,95.07
2022-12-11T16:25:19.183Z,94.59
2022-12-11T16:27:46.680Z,94.85
2022-12-11T16:30:13.777Z,94.53
2022-12-11T16:32:40.481Z,95.00
2022-12-11T16:35:07.236Z,94.94
2022-12-11T16:37:33.961Z,94.64
2022-12-11T16:40:00.788Z,94.84
2022-12-11T16:42:28.072Z,94.36
2022-12-11T16:45:02.820Z,94.45
2022-12-11T16:47:29.772Z,94.69
2022-12-11T16:49:58.816Z,94.64
2022-12-11T16:52:25.514Z,94.92
2022-12-11T16:54:52.533Z,94.70
2022-12-11T16:57:20.043Z,94.45
2022-12-11T16:59:47.893Z,94.23
2022-12-11T17:02:14.921Z,94.94
2022-12-11T17:04:42.138Z,94.49
2022-12-11T17:07:09.535Z,95.22
2022-12-11T17:09:36.818Z,95.45
2022-12-11T17:12:04.917Z,95.34
2022-12-11T17:14:32.105Z,95.72
2022-12-11T17:17:00.024Z,96.20
2022-12-11T17:19:26.831Z,96.28
2022-12-11T17:21:54.928Z,96.46
2022-12-11T17:24:22.006Z,96.08
2022-12-11T17:26:49.958Z,96.42
2022-12-11T17:29:16.824Z,96.55
2022-12-11T17:31:44.063Z,96.84
2022-12-11T17:34:10.919Z,96.25
2022-12-11T17:36:37.775Z,96.22
2022-12-11T17:39:04.552Z,96.64
2022-12-11T17:41:31.489Z,97.14
2022-12-11T17:43:58.210Z,96.83
2022-12-11T17:46:25.173Z,96.97
2022-12-11T17:48:51.944Z,96.44
2022-12-11T17:51:23.920Z,96.70
2022-12-11T17:53:54.789Z,96.83
2022-12-11T17:56:22.700Z,96.83
2022-12-11T17:58:50.137Z,97.19
2022-12-11T18:01:17.646Z,96.86
2022-12-11T18:03:44.720Z,96.97
2022-12-11T18:06:13.973Z,96.59
2022-12-11T18:08:41.622Z,97.12
2022-12-11T18:11:12.494Z,96.64
2022-12-11T18:13:40.172Z,97.13
2022-12-11T18:16:11.717Z,96.87
2022-12-11T18:18:38.821Z,97.02
2022-12-11T18:21:05.880Z,97.27
2022-12-11T18:23:33.331Z,96.56
2022-12-11T18:26:01.225Z,96.84
2022-12-11T18:28:31.349Z,96.87
2022-12-11T18:31:02.328Z,96.62
2022-12-11T18:33:30.029Z,97.17
2022-12-11T18:35:56.851Z,96.70
2022-12-11T18:38:23.815Z,96.91
2022-12-11T18:40:50.515Z,96.75
2022-12-11T18:43:17.337Z,96.53
2022-12-11T18:45:44.991Z,96.38
2022-12-11T18:48:12.714Z,96.80
2022-12-11T18:50:48.616Z,96.47
2022-12-11T18:53:16.369Z,96.32
2022-12-11T18:55:45.248Z,96.45
2022-12-11T18:58:15.036Z,96.44
2022-12-11T19:00:45.990Z,96.14
2022-12-11T19:03:13.533Z,96.15
2022-12-11T19:05:43.049Z,96.37
2022-12-11T19:08:13.275Z,96.55
2022-12-11T19:10:45.014Z,96.40
2022-12-11T19:13:12.973Z,95.97
2022-12-11T19:15:42.125Z,96.32
2022-12-11T19:18:10.421Z,95.98
2022-12-11T19:20:48.960Z,96.23
2022-12-11T19:23:16.729Z,96.18
2022-12-11T19:25:45.602Z,96.21
2022-12-11T19:28:13.854Z,96.38
2022-12-11T19:30:48.479Z,96.40
2022-12-11T19:33:16.279Z,96.20
2022-12-11T19:35:43.376Z,96.42
2022-12-11T19:38:10.205Z,96.06
2022-12-11T19:40:42.874Z,96.33
2022-12-11T19:43:10.193Z,95.79
2022-12-11T19:45:37.755Z,96.06
2022-12-11T19:48:05.175Z,95.65
2022-12-11T19:50:35.752Z,95.52
2022-12-11T19:53:03.429Z,95.73
2022-12-11T19:55:30.360Z,95.47
2022-12-11T19:57:58.230Z,95.94
2022-12-11T20:00:25.120Z,96.05
2022-12-11T20:02:52.487Z,95.64
2022-12-11T20:05:19.288Z,95.32
2022-12-11T20:07:46.062Z,95.00
2022-12-11T20:10:12.876Z,95.54
2022-12-11T20:12:40.922Z,95.84
2022-12-11T20:15:08.324Z,95.48
2022-12-11T20:17:36.348Z,95.20
2022-12-11T20:20:03.253Z,95.38
2022-12-11T20:22:29.931Z,95.59
2022-12-11T20:24:56.703Z,95.20
2022-12-11T20:27:25.612Z,95.07
2022-12-11T20:29:52.402Z,95.25
2022-12-11T20:32:19.250Z,95.29
2022-12-11T20:34:46.041Z,95.25
2022-12-11T20:37:13.715Z,94.84
2022-12-11T20:39:40.673Z,95.01
2022-12-11T20:42:09.491Z,94.68
2022-12-11T20:44:36.257Z,94.69
2022-12-11T20:47:03.074Z,94.68
2022-12-11T20:49:29.779Z,94.53
2022-12-11T20:51:56.545Z,94.46
2022-12-11T20:54:23.466Z,94.70
2022-12-11T20:56:50.710Z,94.69
2022-12-11T20:59:17.895Z,94.62
2022-12-11T21:01:44.682Z,94.56
2022-12-11T21:04:11.582Z,94.57
2022-12-11T21:06:40.867Z,94.43
2022-12-11T21:09:12.350Z,94.47
2022-12-11T21:11:39.483Z,94.91
2022-12-11T21:14:06.750Z,94.30
2022-12-11T21:16:35.971Z,94.54
2022-12-11T21:19:04.210Z,94.41
2022-12-11T21:21:32.659Z,94.08
2022-12-11T21:23:59.319Z,94.03
2022-12-11T21:26:25.973Z,94.34
2022-12-11T21:28:52.809Z,94.61
2022-12-11T21:31:20.054Z,94.37
2022-12-11T21:33:47.700Z,94.42
2022-12-11T21:36:15.427Z,94.58
2022-12-11T21:38:44.262Z,94.55
2022-12-11T21:41:14.972Z,94.33
2022-12-11T21:44:14.604Z,94.64
2022-12-11T21:46:29.914Z,94.39
2022-12-11T21:48:59.014Z,94.36
2022-12-11T21:51:37.664Z,93.93
2022-12-11T21:54:08.565Z,94.22
2022-12-11T21:56:37.141Z,93.93
2022-12-11T21:59:03.896Z,94.02
2022-12-11T22:01:34.585Z,94.51
2022-12-11T22:04:02.629Z,94.18
2022-12-11T22:06:29.387Z,93.95
2022-12-11T22:08:56.032Z,93.92
2022-12-11T22:11:27.288Z,93.72
2022-12-11T22:13:54.129Z,93.58
2022-12-11T22:16:21.025Z,94.01
2022-12-11T22:18:47.937Z,93.83
2022-12-11T22:21:15.729Z,93.72
2022-12-11T22:23:44.005Z,93.76
2022-12-11T22:26:16.405Z,94.00
2022-12-11T22:28:43.294Z,93.85
2022-12-11T22:31:11.676Z,93.99
2022-12-11T22:33:38.758Z,93.55
2022-12-11T22:36:06.095Z,93.47
2022-12-11T22:38:34.093Z,93.35
2022-12-11T22:41:02.564Z,93.78
2022-12-11T22:43:29.306Z,93.94
2022-12-11T22:45:56.107Z,93.66
2022-12-11T22:48:27.149Z,93.65
2022-12-11T22:50:54.285Z,93.60
2022-12-11T22:53:21.781Z,93.59
2022-12-11T22:55:48.551Z,93.16
2022-12-11T22:58:21.407Z,93.44
2022-12-11T23:00:48.596Z,93.42
2022-12-11T23:03:15.999Z,93.89
2022-12-11T23:05:42.863Z,93.57
2022-12-11T23:08:09.768Z,93.24
2022-12-11T23:10:39.883Z,93.37
2022-12-11T23:13:06.976Z,93.78
2022-12-11T23:15:33.708Z,93.60
2022-12-11T23:18:00.371Z,93.71
2022-12-11T23:20:27.647Z,93.49
2022-12-11T23:22:54.368Z,93.48
2022-12-11T23:25:22.272Z,93.48
2022-12-11T23:27:49.141Z,93.37
2022-12-11T23:30:16.004Z,93.47
2022-12-11T23:32:42.738Z,93.54
2022-12-11T23:35:09.679Z,93.41
2022-12-11T23:37:37.012Z,93.79
2022-12-11T23:40:04.845Z,93.47
2022-12-11T23:42:34.254Z,93.47
2022-12-11T23:45:00.990Z,93.38
2022-12-11T23:47:27.766Z,93.05
2022-12-11T23:49:54.389Z,93.68
2022-12-11T23:52:22.385Z,93.48
2022-12-11T23:54:52.002Z,93.29
2022-12-11T23:57:18.673Z,92.94
2022-12-11T23:59:45.393Z,93.31
